createdAt,value
2018-07-08T00:00:08.742Z,73.90
2018-07-08T00:05:04.708Z,74.20
2018-07-08T00:07:32.775Z,74.40
2018-07-08T00:10:00.920Z,74.70
2018-07-08T00:12:28.999Z,75.70
2018-07-08T00:14:57.075Z,75.20
2018-07-08T00:19:53.186Z,75.20
2018-07-08T00:22:21.247Z,75.30
2018-07-08T00:24:49.346Z,75.90
2018-07-08T00:27:17.425Z,75.90
2018-07-08T00:29:45.494Z,76.40
2018-07-08T00:32:13.566Z,76.10
2018-07-08T00:34:41.639Z,76.10
2018-07-08T00:37:09.726Z,76.10
2018-07-08T00:39:37.782Z,76.10
2018-07-08T00:42:05.911Z,76.00
2018-07-08T00:44:33.950Z,76.10
2018-07-08T00:47:02.014Z,76.10
2018-07-08T00:49:30.086Z,76.40
2018-07-08T00:51:58.190Z,76.50
2018-07-08T00:54:26.262Z,76.60
2018-07-08T00:56:54.318Z,77.00
2018-07-08T00:59:22.374Z,77.20
2018-07-08T01:01:50.778Z,77.30
2018-07-08T01:04:18.850Z,77.50
2018-07-08T01:06:46.918Z,78.50
2018-07-08T01:09:15.002Z,78.40
2018-07-08T01:11:43.082Z,78.80
2018-07-08T01:14:11.153Z,78.50
2018-07-08T01:16:39.228Z,78.00
2018-07-08T01:19:07.274Z,77.80
2018-07-08T01:21:35.335Z,77.70
2018-07-08T01:24:03.416Z,77.50
2018-07-08T01:26:31.470Z,77.50
2018-07-08T01:28:59.547Z,77.60
2018-07-08T01:31:27.629Z,77.70
2018-07-08T01:33:55.687Z,77.90
2018-07-08T01:36:23.754Z,78.20
2018-07-08T01:38:51.815Z,78.50
2018-07-08T01:41:19.887Z,78.70
2018-07-08T01:43:47.952Z,79.00
2018-07-08T01:46:16.020Z,79.00
2018-07-08T01:48:44.105Z,78.90
2018-07-08T01:53:40.030Z,80.10
2018-07-08T01:56:08.107Z,80.10
2018-07-08T02:01:04.058Z,79.90
2018-07-08T02:03:32.130Z,79.80
2018-07-08T02:08:28.098Z,79.80
2018-07-08T02:10:56.160Z,79.70
2018-07-08T02:13:24.688Z,79.90
2018-07-08T02:15:52.772Z,80.00
2018-07-08T02:18:20.840Z,80.00
2018-07-08T02:20:49.126Z,79.90
2018-07-08T02:23:17.230Z,79.90
2018-07-08T02:25:45.325Z,80.70
2018-07-08T02:28:13.699Z,80.20
2018-07-08T02:30:42.052Z,80.40
2018-07-08T02:33:10.129Z,81.50
2018-07-08T02:35:38.202Z,81.70
2018-07-08T02:38:06.275Z,82.80
2018-07-08T02:40:35.052Z,82.70
2018-07-08T02:43:03.129Z,82.60
2018-07-08T02:45:31.195Z,82.60
2018-07-08T02:47:59.578Z,82.70
2018-07-08T02:50:27.643Z,82.90
2018-07-08T02:52:55.719Z,82.70
2018-07-08T02:55:23.798Z,82.70
2018-07-08T02:57:51.870Z,82.50
2018-07-08T03:00:19.941Z,82.60
2018-07-08T03:02:48.011Z,82.50
2018-07-08T03:05:16.099Z,82.60
2018-07-08T03:07:44.486Z,82.70
2018-07-08T03:10:12.550Z,82.80
2018-07-08T03:12:40.607Z,82.80
2018-07-08T03:15:08.674Z,82.80
2018-07-08T03:17:36.747Z,82.70
2018-07-08T03:20:04.874Z,82.70
2018-07-08T03:22:32.923Z,83.00
2018-07-08T03:25:00.976Z,83.10
2018-07-08T03:27:29.143Z,83.00
2018-07-08T03:29:57.218Z,83.00
2018-07-08T03:32:25.630Z,82.80
2018-07-08T03:34:53.714Z,82.80
2018-07-08T03:37:23.510Z,82.80
2018-07-08T03:39:51.579Z,82.90
2018-07-08T03:42:19.718Z,83.00
2018-07-08T03:44:48.100Z,83.40
2018-07-08T03:47:16.270Z,83.60
2018-07-08T03:49:44.322Z,83.80
2018-07-08T03:52:12.378Z,83.80
2018-07-08T03:54:40.472Z,84.00
2018-07-08T03:57:08.557Z,84.00
2018-07-08T03:59:36.637Z,84.00
2018-07-08T04:02:04.702Z,84.10
2018-07-08T04:04:32.774Z,84.10
2018-07-08T04:07:00.843Z,85.40
2018-07-08T04:09:29.250Z,85.50
2018-07-08T04:11:57.311Z,86.70
2018-07-08T04:14:25.387Z,86.40
2018-07-08T04:16:53.457Z,86.30
2018-07-08T04:19:21.530Z,86.10
2018-07-08T04:21:49.612Z,85.80
2018-07-08T04:24:17.682Z,85.70
2018-07-08T04:26:45.747Z,85.70
2018-07-08T04:29:13.816Z,85.70
2018-07-08T04:31:41.894Z,85.80
2018-07-08T04:34:10.064Z,85.70
2018-07-08T04:36:38.135Z,85.70
2018-07-08T04:39:07.167Z,85.70
2018-07-08T04:41:35.241Z,85.70
2018-07-08T04:44:03.502Z,85.50
2018-07-08T04:46:31.973Z,85.40
2018-07-08T04:49:00.039Z,85.20
2018-07-08T04:51:28.121Z,85.10
2018-07-08T04:53:56.193Z,85.00
2018-07-08T04:56:24.485Z,85.10
2018-07-08T04:58:53.038Z,85.20
2018-07-08T05:01:21.162Z,85.50
2018-07-08T05:03:49.232Z,85.30
2018-07-08T05:06:17.290Z,85.60
2018-07-08T05:08:45.384Z,84.80
2018-07-08T05:11:13.714Z,84.40
2018-07-08T05:16:09.630Z,84.20
2018-07-08T05:18:37.678Z,84.00
2018-07-08T05:21:06.411Z,83.80
2018-07-08T05:23:34.726Z,83.80
2018-07-08T05:26:02.784Z,83.60
2018-07-08T05:28:30.863Z,83.60
2018-07-08T05:30:58.942Z,83.80
2018-07-08T05:33:27.013Z,84.20
2018-07-08T05:35:55.406Z,84.50
2018-07-08T05:38:23.483Z,84.70
2018-07-08T05:40:51.565Z,85.00
2018-07-08T05:43:19.634Z,85.10
2018-07-08T05:45:47.784Z,85.00
2018-07-08T05:48:16.172Z,85.00
2018-07-08T05:50:44.242Z,85.00
2018-07-08T05:53:12.314Z,85.20
2018-07-08T05:55:40.415Z,85.00
2018-07-08T05:58:08.476Z,84.90
2018-07-08T06:00:36.556Z,84.80
2018-07-08T06:03:04.848Z,84.50
2018-07-08T06:05:32.924Z,84.70
2018-07-08T06:08:01.035Z,84.60
2018-07-08T06:10:29.094Z,84.60
2018-07-08T06:12:57.459Z,84.40
2018-07-08T06:15:25.603Z,84.90
2018-07-08T06:17:53.603Z,84.00
2018-07-08T06:22:49.550Z,83.70
2018-07-08T06:25:17.918Z,83.40
2018-07-08T06:27:45.974Z,83.30
2018-07-08T06:30:14.050Z,83.20
2018-07-08T06:32:42.182Z,83.10
2018-07-08T06:35:10.262Z,82.60
2018-07-08T06:37:38.882Z,82.70
2018-07-08T06:40:06.959Z,81.90
2018-07-08T06:45:02.930Z,82.00
2018-07-08T06:47:30.982Z,81.10
2018-07-08T06:49:59.406Z,81.00
2018-07-08T06:52:27.472Z,80.40
2018-07-08T06:54:55.528Z,80.00
2018-07-08T06:57:23.626Z,78.70
2018-07-08T06:59:51.710Z,77.70
2018-07-08T07:02:20.135Z,76.90
2018-07-08T07:04:48.231Z,76.30
2018-07-08T07:07:16.301Z,76.30
2018-07-08T07:09:44.390Z,75.20
2018-07-08T07:12:12.538Z,74.90
2018-07-08T07:14:41.224Z,74.30
2018-07-08T07:17:09.282Z,73.60
2018-07-08T07:19:37.343Z,73.00
2018-07-08T07:22:05.738Z,72.80
2018-07-08T07:24:33.806Z,72.20
2018-07-08T07:27:02.182Z,71.50
2018-07-08T07:29:30.330Z,71.10
2018-07-08T07:31:58.426Z,70.70
2018-07-08T07:34:26.546Z,69.60
2018-07-08T07:36:55.498Z,69.20
2018-07-08T07:39:23.895Z,66.90
2018-07-08T07:41:51.963Z,67.20
2018-07-08T07:44:20.019Z,66.90
2018-07-08T07:46:48.175Z,66.50
2018-07-08T07:49:16.398Z,66.20
2018-07-08T07:51:44.535Z,65.70
2018-07-08T07:54:12.707Z,64.60
2018-07-08T07:56:40.924Z,63.90
2018-07-08T07:59:09.007Z,63.40
2018-07-08T08:01:37.088Z,62.90
2018-07-08T08:04:05.512Z,62.10
2018-07-08T08:06:33.780Z,61.30
2018-07-08T08:09:01.844Z,60.50
2018-07-08T08:11:29.928Z,60.60
2018-07-08T08:14:02.330Z,60.70
2018-07-08T08:16:30.825Z,60.90
2018-07-08T08:18:59.301Z,61.30
2018-07-08T08:21:27.378Z,61.10
2018-07-08T08:23:56.508Z,61.00
2018-07-08T08:26:24.607Z,61.00
2018-07-08T08:28:52.643Z,60.50
2018-07-08T08:31:20.706Z,60.20
2018-07-08T08:34:59.321Z,59.50
2018-07-08T08:37:28.767Z,59.80
2018-07-08T08:39:57.019Z,59.50
2018-07-08T08:42:25.125Z,59.60
2018-07-08T08:44:54.178Z,59.50
2018-07-08T08:47:22.914Z,59.30
2018-07-08T08:49:51.726Z,59.00
2018-07-08T08:52:19.874Z,58.80
2018-07-08T08:54:47.927Z,58.60
2018-07-08T08:57:16.002Z,58.60
2018-07-08T08:59:44.236Z,58.90
2018-07-08T09:02:12.486Z,58.80
2018-07-08T09:04:41.392Z,58.70
2018-07-08T09:07:10.864Z,58.60
2018-07-08T09:09:38.935Z,58.70
2018-07-08T09:12:07.546Z,59.30
2018-07-08T09:14:35.815Z,58.50
2018-07-08T09:17:03.889Z,58.30
2018-07-08T09:19:31.965Z,58.20
2018-07-08T09:22:00.122Z,58.10
2018-07-08T09:24:28.192Z,58.10
2018-07-08T09:27:00.732Z,58.30
2018-07-08T09:29:28.838Z,58.30
2018-07-08T09:31:56.994Z,57.30
2018-07-08T09:34:25.524Z,56.70
2018-07-08T09:36:53.571Z,56.50
2018-07-08T09:39:21.845Z,56.50
2018-07-08T09:41:49.866Z,56.30
2018-07-08T09:44:18.360Z,56.20
2018-07-08T09:46:47.547Z,56.10
2018-07-08T09:49:15.830Z,55.90
2018-07-08T09:51:44.355Z,55.40
2018-07-08T09:54:12.638Z,55.00
2018-07-08T09:56:40.785Z,54.30
2018-07-08T09:59:08.916Z,54.00
2018-07-08T10:01:44.208Z,54.10
2018-07-08T10:04:26.933Z,53.70
2018-07-08T10:06:55.666Z,53.40
2018-07-08T10:09:24.688Z,53.60
2018-07-08T10:11:53.215Z,53.50
2018-07-08T10:14:22.474Z,52.90
2018-07-08T10:16:50.568Z,52.00
2018-07-08T10:19:19.729Z,51.90
2018-07-08T10:21:47.825Z,51.80
2018-07-08T10:24:15.944Z,51.70
2018-07-08T10:26:44.036Z,51.40
2018-07-08T10:29:16.592Z,50.80
2018-07-08T10:31:49.413Z,50.00
2018-07-08T10:34:18.070Z,49.50
2018-07-08T10:36:46.270Z,49.40
2018-07-08T10:39:15.343Z,49.00
2018-07-08T10:41:43.503Z,48.50
2018-07-08T10:44:12.307Z,48.20
2018-07-08T10:46:40.828Z,47.90
2018-07-08T10:49:09.320Z,47.90
2018-07-08T10:51:37.562Z,48.20
2018-07-08T10:54:06.126Z,48.50
2018-07-08T10:56:36.409Z,48.40
2018-07-08T10:59:04.503Z,46.80
2018-07-08T11:01:32.579Z,46.80
2018-07-08T11:04:01.192Z,47.10
2018-07-08T11:06:29.251Z,47.00
2018-07-08T11:08:57.419Z,47.00
2018-07-08T11:11:25.571Z,47.40
2018-07-08T11:13:53.735Z,47.50
2018-07-08T11:16:21.872Z,47.60
2018-07-08T11:18:49.959Z,47.30
2018-07-08T11:21:18.042Z,46.80
2018-07-08T11:23:46.119Z,46.80
2018-07-08T11:26:14.218Z,46.30
2018-07-08T11:28:42.389Z,45.70
2018-07-08T11:31:10.787Z,45.20
2018-07-08T11:33:38.880Z,45.00
2018-07-08T11:36:07.457Z,45.10
2018-07-08T11:38:35.514Z,45.20
2018-07-08T11:41:03.583Z,44.40
2018-07-08T11:43:32.025Z,43.90
2018-07-08T11:46:00.095Z,44.00
2018-07-08T11:48:28.299Z,44.00
2018-07-08T11:50:56.453Z,43.80
2018-07-08T11:53:24.563Z,43.40
2018-07-08T11:58:21.407Z,43.00
2018-07-08T12:00:49.525Z,42.70
2018-07-08T12:03:17.648Z,43.10
2018-07-08T12:05:45.708Z,43.20
2018-07-08T12:08:13.780Z,43.30
2018-07-08T12:10:41.925Z,43.10
2018-07-08T12:13:10.026Z,43.10
2018-07-08T12:15:38.114Z,42.60
2018-07-08T12:18:07.308Z,42.50
2018-07-08T12:20:38.156Z,43.00
2018-07-08T12:23:07.036Z,42.60
2018-07-08T12:25:35.106Z,43.10
2018-07-08T12:28:03.206Z,42.70
2018-07-08T12:30:31.322Z,42.60
2018-07-08T12:32:59.427Z,42.80
2018-07-08T12:35:27.497Z,42.90
2018-07-08T12:37:55.581Z,42.40
2018-07-08T12:40:23.671Z,42.40
2018-07-08T12:42:51.739Z,42.60
2018-07-08T12:45:19.831Z,42.80
2018-07-08T12:47:47.897Z,42.60
2018-07-08T12:50:15.962Z,42.50
2018-07-08T12:52:44.071Z,42.60
2018-07-08T12:55:12.182Z,42.10
2018-07-08T12:57:40.563Z,42.50
2018-07-08T13:00:08.654Z,42.90
2018-07-08T13:02:36.763Z,42.80
2018-07-08T13:05:05.199Z,42.90
2018-07-08T13:07:33.259Z,42.40
2018-07-08T13:10:01.362Z,42.10
2018-07-08T13:12:29.456Z,42.10
2018-07-08T13:14:57.528Z,42.30
2018-07-08T13:17:25.614Z,42.70
2018-07-08T13:19:53.760Z,42.90
2018-07-08T13:22:21.818Z,42.50
2018-07-08T13:24:50.178Z,42.60
2018-07-08T13:27:18.378Z,41.40
2018-07-08T13:29:46.467Z,40.70
2018-07-08T13:32:14.578Z,41.00
2018-07-08T13:34:42.671Z,41.80
2018-07-08T13:37:11.043Z,43.00
2018-07-08T13:39:39.167Z,39.80
2018-07-08T13:42:07.230Z,40.80
2018-07-08T13:44:35.314Z,40.70
2018-07-08T13:47:03.402Z,41.00
2018-07-08T13:49:31.703Z,40.60
2018-07-08T13:51:59.878Z,39.90
2018-07-08T13:54:27.948Z,39.70
2018-07-08T13:56:56.007Z,39.80
2018-07-08T13:59:24.094Z,40.20
2018-07-08T14:01:52.482Z,40.70
2018-07-08T14:04:20.560Z,40.80
2018-07-08T14:06:48.638Z,40.90
2018-07-08T14:09:17.155Z,41.30
2018-07-08T14:16:41.031Z,40.80
2018-07-08T14:19:09.102Z,40.90
2018-07-08T14:21:37.174Z,40.80
2018-07-08T14:24:05.414Z,40.80
2018-07-08T14:26:33.961Z,40.60
2018-07-08T14:29:02.812Z,40.50
2018-07-08T14:31:30.917Z,40.70
2018-07-08T14:33:59.035Z,40.00
2018-07-08T14:36:27.162Z,39.50
2018-07-08T14:38:55.328Z,39.30
2018-07-08T14:41:23.397Z,38.60
2018-07-08T14:43:51.532Z,38.70
2018-07-08T14:48:47.799Z,38.60
2018-07-08T14:51:15.899Z,37.80
2018-07-08T14:53:44.098Z,36.00
2018-07-08T14:56:12.176Z,35.40
2018-07-08T14:58:40.302Z,35.90
2018-07-08T15:01:08.438Z,35.90
2018-07-08T15:03:36.665Z,35.50
2018-07-08T15:06:04.751Z,35.40
2018-07-08T15:08:32.926Z,35.20
2018-07-08T15:11:00.995Z,34.70
2018-07-08T15:13:29.102Z,34.60
2018-07-08T15:15:57.239Z,34.50
2018-07-08T15:18:25.250Z,34.40
2018-07-08T15:20:53.378Z,33.90
2018-07-08T15:25:49.405Z,33.80
2018-07-08T15:28:17.490Z,33.40
2018-07-08T15:30:45.554Z,33.70
2018-07-08T15:33:13.658Z,34.00
2018-07-08T15:35:42.239Z,34.00
2018-07-08T15:38:10.355Z,34.30
2018-07-08T15:40:39.378Z,33.90
2018-07-08T15:43:07.627Z,33.00
2018-07-08T15:45:36.218Z,33.10
2018-07-08T15:48:04.286Z,33.70
2018-07-08T15:53:00.227Z,33.90
2018-07-08T15:55:28.746Z,33.70
2018-07-08T15:57:56.829Z,33.40
2018-07-08T16:00:25.353Z,33.10
2018-07-08T16:02:53.963Z,32.90
2018-07-08T16:05:22.237Z,32.20
2018-07-08T16:07:50.662Z,32.50
2018-07-08T16:10:19.075Z,32.40
2018-07-08T16:12:47.145Z,31.80
2018-07-08T16:15:16.292Z,31.60
2018-07-08T16:17:44.368Z,32.10
2018-07-08T16:20:12.489Z,31.30
2018-07-08T16:22:40.557Z,31.10
2018-07-08T16:25:08.726Z,30.80
2018-07-08T16:27:37.227Z,30.90
2018-07-08T16:30:05.389Z,30.70
2018-07-08T16:32:34.055Z,30.40
2018-07-08T16:35:03.511Z,30.00
2018-07-08T16:37:31.685Z,30.70
2018-07-08T16:39:59.765Z,30.40
2018-07-08T16:42:27.832Z,30.80
2018-07-08T16:44:55.907Z,30.30
2018-07-08T16:47:23.981Z,30.30
2018-07-08T16:49:52.048Z,30.30
2018-07-08T16:52:20.394Z,30.00
2018-07-08T16:54:48.651Z,29.50
2018-07-08T16:57:16.722Z,29.20
2018-07-08T16:59:44.808Z,29.20
2018-07-08T17:02:12.951Z,29.30
2018-07-08T17:04:41.365Z,29.20
2018-07-08T17:07:09.529Z,29.50
2018-07-08T17:09:37.618Z,31.10
2018-07-08T17:12:06.420Z,32.90
2018-07-08T17:14:34.493Z,34.90
2018-07-08T17:17:02.559Z,36.70
2018-07-08T17:19:30.742Z,38.30
2018-07-08T17:21:58.833Z,39.50
2018-07-08T17:24:26.908Z,40.40
2018-07-08T17:26:54.994Z,40.70
2018-07-08T17:29:23.420Z,41.00
2018-07-08T17:31:52.458Z,42.00
2018-07-08T17:36:48.472Z,43.80
2018-07-08T17:39:16.574Z,44.30
2018-07-08T17:44:12.890Z,45.70
2018-07-08T17:46:41.011Z,46.40
2018-07-08T17:49:09.059Z,46.30
2018-07-08T17:51:37.330Z,46.60
2018-07-08T17:54:05.765Z,47.10
2018-07-08T17:56:33.883Z,47.70
2018-07-08T17:59:01.955Z,48.00
2018-07-08T18:01:30.013Z,48.30
2018-07-08T18:03:58.095Z,49.50
2018-07-08T18:06:26.468Z,48.70
2018-07-08T18:08:54.566Z,49.70
2018-07-08T18:11:22.649Z,49.50
2018-07-08T18:13:50.973Z,50.40
2018-07-08T18:16:19.654Z,51.10
2018-07-08T18:18:47.774Z,51.20
2018-07-08T18:23:43.917Z,51.20
2018-07-08T18:28:39.934Z,51.50
2018-07-08T18:31:08.271Z,51.90
2018-07-08T18:33:36.554Z,52.10
2018-07-08T18:36:04.650Z,52.50
2018-07-08T18:38:32.739Z,53.20
2018-07-08T18:41:00.796Z,53.50
2018-07-08T18:43:28.864Z,53.90
2018-07-08T18:45:56.953Z,54.10
2018-07-08T18:50:52.928Z,54.70
2018-07-08T18:53:21.048Z,54.90
2018-07-08T18:55:49.451Z,55.40
2018-07-08T18:58:17.575Z,55.50
2018-07-08T19:00:46.048Z,55.70
2018-07-08T19:03:14.125Z,56.00
2018-07-08T19:05:42.487Z,56.20
2018-07-08T19:08:10.819Z,56.50
2018-07-08T19:10:38.939Z,57.40
2018-07-08T19:13:07.254Z,57.00
2018-07-08T19:15:35.310Z,57.10
2018-07-08T19:18:03.462Z,57.40
2018-07-08T19:20:31.507Z,57.60
2018-07-08T19:22:59.689Z,57.90
2018-07-08T19:25:27.775Z,58.10
2018-07-08T19:27:55.846Z,58.60
2018-07-08T19:30:24.028Z,59.10
2018-07-08T19:32:52.162Z,59.20
2018-07-08T19:35:20.294Z,59.20
2018-07-08T19:37:48.440Z,59.50
2018-07-08T19:40:16.523Z,59.80
2018-07-08T19:44:14.113Z,59.90
2018-07-08T19:46:49.511Z,60.30
2018-07-08T19:49:18.221Z,60.50
2018-07-08T19:51:46.327Z,60.80
2018-07-08T19:54:14.399Z,61.00
2018-07-08T19:56:42.535Z,61.40
2018-07-08T19:59:10.656Z,61.90
2018-07-08T20:01:38.719Z,62.20
2018-07-08T20:04:06.906Z,62.40
2018-07-08T20:06:34.967Z,62.60
2018-07-08T20:09:03.195Z,62.70
2018-07-08T20:11:31.261Z,62.70
2018-07-08T20:13:59.375Z,62.80
2018-07-08T20:16:27.499Z,63.20
2018-07-08T20:18:55.515Z,63.40
2018-07-08T20:21:23.934Z,63.50
2018-07-08T20:23:52.090Z,63.50
2018-07-08T20:26:20.563Z,63.60
2018-07-08T20:28:48.848Z,64.60
2018-07-08T20:31:17.074Z,64.10
2018-07-08T20:33:45.306Z,64.40
2018-07-08T20:36:13.540Z,64.70
2018-07-08T20:38:41.686Z,65.40
2018-07-08T20:41:09.918Z,65.20
2018-07-08T20:43:38.110Z,65.90
2018-07-08T20:46:06.457Z,66.60
2018-07-08T20:48:34.739Z,65.80
2018-07-08T20:51:03.171Z,65.90
2018-07-08T20:53:31.263Z,66.10
2018-07-08T20:56:00.346Z,66.20
2018-07-08T20:58:28.727Z,66.30
2018-07-08T21:00:56.872Z,66.50
2018-07-08T21:03:25.145Z,66.60
2018-07-08T21:05:53.313Z,66.70
2018-07-08T21:08:21.409Z,66.90
2018-07-08T21:10:49.470Z,67.30
2018-07-08T21:13:17.743Z,67.40
2018-07-08T21:15:45.825Z,68.00
2018-07-08T21:18:14.025Z,68.00
2018-07-08T21:20:42.207Z,68.80
2018-07-08T21:23:10.363Z,68.60
2018-07-08T21:25:38.950Z,68.50
2018-07-08T21:28:07.022Z,68.70
2018-07-08T21:30:35.127Z,68.70
2018-07-08T21:33:03.682Z,68.80
2018-07-08T21:35:31.745Z,68.90
2018-07-08T21:38:00.372Z,69.10
2018-07-08T21:40:28.444Z,69.20
2018-07-08T21:42:56.650Z,69.50
2018-07-08T21:45:25.003Z,70.30
2018-07-08T21:47:53.116Z,69.60
2018-07-08T21:50:21.198Z,69.80
2018-07-08T21:52:49.418Z,70.50
2018-07-08T21:55:17.618Z,70.40
2018-07-08T21:57:45.838Z,71.10
2018-07-08T22:00:14.066Z,70.90
2018-07-08T22:02:43.747Z,70.80
2018-07-08T22:05:11.851Z,70.80
2018-07-08T22:08:18.354Z,71.00
2018-07-08T22:10:46.430Z,71.10
2018-07-08T22:13:14.486Z,71.30
2018-07-08T22:15:42.557Z,71.50
2018-07-08T22:18:10.690Z,71.60
2018-07-08T22:20:38.806Z,72.00
2018-07-08T22:23:06.867Z,72.30
2018-07-08T22:25:34.926Z,72.80
2018-07-08T22:28:03.034Z,72.90
2018-07-08T22:30:31.217Z,73.80
2018-07-08T22:32:59.321Z,73.80
2018-07-08T22:35:27.369Z,74.70
2018-07-08T22:37:55.458Z,74.70
2018-07-08T22:40:23.574Z,74.80
2018-07-08T22:42:51.784Z,75.40
2018-07-08T22:45:19.878Z,74.90
2018-07-08T22:47:47.967Z,75.00
2018-07-08T22:50:16.023Z,75.00
2018-07-08T22:52:44.111Z,75.10
2018-07-08T22:55:12.198Z,76.00
2018-07-08T22:57:40.875Z,75.60
2018-07-08T23:00:20.446Z,75.90
2018-07-08T23:02:51.699Z,76.00
2018-07-08T23:05:19.772Z,76.10
2018-07-08T23:07:48.606Z,76.20
2018-07-08T23:10:16.671Z,77.40
2018-07-08T23:12:44.834Z,77.90
2018-07-08T23:15:13.182Z,77.10
2018-07-08T23:17:44.857Z,77.20
2018-07-08T23:20:13.025Z,77.20
2018-07-08T23:22:52.643Z,77.30
2018-07-08T23:25:21.030Z,77.40
2018-07-08T23:27:49.221Z,77.60
2018-07-08T23:30:17.475Z,77.70
2018-07-08T23:32:45.550Z,78.00
2018-07-08T23:35:13.621Z,78.00
2018-07-08T23:37:42.107Z,78.10
2018-07-08T23:40:10.202Z,78.20
2018-07-08T23:42:38.458Z,78.40
2018-07-08T23:45:06.559Z,78.50
2018-07-08T23:47:34.723Z,78.60
2018-07-08T23:50:02.797Z,78.80
2018-07-08T23:52:30.926Z,79.60
2018-07-08T23:54:59.008Z,79.60
2018-07-08T23:57:27.098Z,79.70
2018-07-08T23:59:55.383Z,79.80
